createdAt,value
2019-03-23T00:09:37.280Z,100.00
2019-03-23T00:19:42.295Z,100.00
2019-03-23T00:29:47.179Z,100.00
2019-03-23T00:39:52.159Z,100.00
2019-03-23T00:49:57.168Z,100.00
2019-03-23T01:00:02.206Z,100.00
2019-03-23T01:10:10.019Z,100.00
2019-03-23T01:20:15.700Z,100.00
2019-03-23T01:30:20.612Z,100.00
2019-03-23T01:40:25.604Z,100.00
2019-03-23T01:50:30.593Z,100.00
2019-03-23T02:00:36.683Z,100.00
2019-03-23T02:10:41.998Z,100.00
2019-03-23T02:20:47.010Z,100.00
2019-03-23T02:30:52.103Z,100.00
2019-03-23T02:40:59.771Z,100.00
2019-03-23T02:51:05.077Z,100.00
2019-03-23T03:01:09.948Z,100.00
2019-03-23T03:11:14.960Z,100.00
2019-03-23T03:21:19.944Z,100.00
2019-03-23T03:31:24.948Z,100.00
2019-03-23T03:52:07.282Z,100.00
2019-03-23T04:02:12.271Z,100.00
2019-03-23T04:12:17.377Z,100.00
2019-03-23T04:22:22.775Z,100.00
2019-03-23T04:32:27.773Z,100.00
2019-03-23T04:42:32.758Z,100.00
2019-03-23T04:52:39.288Z,100.00
2019-03-23T05:02:45.312Z,100.00
2019-03-23T05:12:51.423Z,100.00
2019-03-23T05:22:56.416Z,100.00
2019-03-23T05:33:01.407Z,100.00
2019-03-23T05:43:06.292Z,100.00
2019-03-23T05:53:11.348Z,100.00
2019-03-23T06:03:16.613Z,100.00
2019-03-23T06:13:21.783Z,100.00
2019-03-23T06:23:26.903Z,100.00
2019-03-23T06:33:32.116Z,100.00
2019-03-23T06:43:37.155Z,100.00
2019-03-23T06:53:42.065Z,100.00
2019-03-23T07:03:47.047Z,100.00
2019-03-23T07:13:52.105Z,94.05
2019-03-23T07:23:57.037Z,92.86
2019-03-23T07:41:41.754Z,74.65
2019-03-23T07:51:46.728Z,75.16
2019-03-23T08:01:51.705Z,69.17
2019-03-23T08:11:56.596Z,60.29
2019-03-23T08:22:01.580Z,51.49
2019-03-23T08:32:06.495Z,53.06
2019-03-23T08:42:11.476Z,61.29
2019-03-23T08:52:16.459Z,64.06
2019-03-23T09:02:21.998Z,59.56
2019-03-23T09:12:27.053Z,57.12
2019-03-23T09:22:31.947Z,55.74
2019-03-23T09:32:36.941Z,53.64
2019-03-23T09:42:41.950Z,50.09
2019-03-23T09:52:46.935Z,45.92
2019-03-23T10:02:51.937Z,40.27
2019-03-23T10:12:56.926Z,45.56
2019-03-23T10:23:03.138Z,44.63
2019-03-23T10:33:09.168Z,42.94
2019-03-23T10:43:14.412Z,43.03
2019-03-23T10:53:23.150Z,43.30
2019-03-23T11:03:26.195Z,40.38
2019-03-23T11:13:31.180Z,41.34
2019-03-23T11:23:36.281Z,38.77
2019-03-23T11:33:41.378Z,34.67
2019-03-23T11:43:59.618Z,35.72
2019-03-23T11:54:13.584Z,36.92
2019-03-23T12:04:18.564Z,39.12
2019-03-23T12:14:23.580Z,38.59
2019-03-23T12:24:28.554Z,34.58
2019-03-23T12:34:33.544Z,37.27
2019-03-23T12:44:38.546Z,34.15
2019-03-23T12:54:43.529Z,37.68
2019-03-23T13:04:48.536Z,41.35
2019-03-23T13:14:53.533Z,42.30
2019-03-23T13:24:58.609Z,42.72
2019-03-23T13:35:03.616Z,44.07
2019-03-23T13:45:09.295Z,47.16
2019-03-23T13:55:25.050Z,48.96
2019-03-23T14:05:30.039Z,48.86
2019-03-23T14:15:35.057Z,50.04
2019-03-23T14:25:40.036Z,48.58
2019-03-23T14:35:45.029Z,47.28
2019-03-23T14:45:50.142Z,50.13
2019-03-23T14:55:55.126Z,49.46
2019-03-23T15:06:00.128Z,49.67
2019-03-23T15:16:05.054Z,50.76
2019-03-23T15:26:10.024Z,50.56
2019-03-23T15:36:15.203Z,49.25
2019-03-23T15:46:20.102Z,49.52
2019-03-23T15:56:25.198Z,50.67
2019-03-23T16:06:30.297Z,51.26
2019-03-23T16:16:35.561Z,51.75
2019-03-23T16:26:40.689Z,54.35
2019-03-23T16:36:45.686Z,54.92
2019-03-23T16:46:50.952Z,56.10
2019-03-23T16:56:56.264Z,56.57
2019-03-23T17:07:01.483Z,61.12
2019-03-23T17:17:06.665Z,65.22
2019-03-23T17:27:12.917Z,65.73
2019-03-23T17:37:18.315Z,68.72
2019-03-23T17:47:23.504Z,70.97
2019-03-23T17:57:28.956Z,72.66
2019-03-23T18:07:34.349Z,74.80
2019-03-23T18:17:39.752Z,76.43
2019-03-23T18:27:45.182Z,77.90
2019-03-23T18:37:50.423Z,78.17
2019-03-23T18:47:55.766Z,79.40
2019-03-23T18:58:01.008Z,78.66
2019-03-23T19:08:06.561Z,81.98
2019-03-23T19:18:11.780Z,82.56
2019-03-23T19:28:17.045Z,83.39
2019-03-23T19:38:22.285Z,82.82
2019-03-23T19:48:27.452Z,83.65
2019-03-23T19:58:32.662Z,85.39
2019-03-23T20:08:38.216Z,86.44
2019-03-23T20:18:43.339Z,86.67
2019-03-23T20:28:48.762Z,87.01
2019-03-23T20:38:54.178Z,88.24
2019-03-23T20:48:59.920Z,87.80
2019-03-23T20:59:05.380Z,87.57
2019-03-23T21:09:11.029Z,88.91
2019-03-23T21:19:16.390Z,88.68
2019-03-23T21:29:21.487Z,88.37
2019-03-23T21:39:26.690Z,87.87
2019-03-23T21:49:31.902Z,89.64
2019-03-23T21:59:36.934Z,89.30
2019-03-23T22:09:42.029Z,90.23
2019-03-23T22:19:47.028Z,87.96
2019-03-23T22:29:52.028Z,86.62
2019-03-23T22:39:57.010Z,85.96
2019-03-23T22:50:02.026Z,85.25
2019-03-23T23:00:13.864Z,84.49
2019-03-23T23:10:20.394Z,84.56
2019-03-23T23:20:26.413Z,85.77
2019-03-23T23:30:31.501Z,84.54
2019-03-23T23:40:36.387Z,85.37
2019-03-23T23:50:41.384Z,84.01
